Time;durP1;ratioP1;P1;durP2;ratioP2;P2;SDS_P1;SDS_P2;PMS_P1;PMS_P2;Temp;Humidity;BMP_temperature;BMP_pressure;BME280_temperature;BME280_humidity;BME280_pressure;Samples;Min_cycle;Max_cycle;Signal;HPM_P1;HPM_P2
2021/04/22 00:01:41;;;;;;;14.52;8.85;;;9.50;99.90;;;;;;5029852;28;20030;-78
2021/04/22 00:04:07;;;;;;;14.00;7.70;;;9.40;99.90;;;;;;5030301;28;20472;-78
2021/04/22 00:06:33;;;;;;;12.27;7.50;;;9.30;99.90;;;;;;5028629;28;20036;-78
2021/04/22 00:08:58;;;;;;;11.90;6.72;;;9.30;99.90;;;;;;5030288;28;20097;-78
2021/04/22 00:11:25;;;;;;;9.88;6.40;;;9.20;99.90;;;;;;5044910;28;20033;-78
2021/04/22 00:13:51;;;;;;;12.82;7.15;;;9.10;99.90;;;;;;5028919;28;20049;-78
2021/04/22 00:16:20;;;;;;;13.88;7.00;;;9.10;99.90;;;;;;5029909;28;20029;-78
2021/04/22 00:18:46;;;;;;;9.65;7.35;;;9.00;99.90;;;;;;5030079;28;20025;-78
2021/04/22 00:21:12;;;;;;;9.60;5.93;;;9.00;99.90;;;;;;5028278;28;20066;-78
2021/04/22 00:23:38;;;;;;;10.52;6.32;;;9.00;99.90;;;;;;5029972;28;20018;-78
2021/04/22 00:26:03;;;;;;;8.40;5.78;;;9.00;99.90;;;;;;5029613;28;20457;-78
2021/04/22 00:28:29;;;;;;;11.77;6.07;;;9.10;99.90;;;;;;5029988;28;20076;-78
2021/04/22 00:30:58;;;;;;;8.70;5.80;;;9.10;99.90;;;;;;5032641;28;20040;-78
2021/04/22 00:33:24;;;;;;;12.18;4.97;;;9.10;99.90;;;;;;5033775;28;20029;-78
2021/04/22 00:35:51;;;;;;;8.93;4.88;;;9.10;99.90;;;;;;5033647;28;20181;-78
2021/04/22 00:38:17;;;;;;;8.30;5.53;;;9.10;99.90;;;;;;5032358;28;20071;-77
2021/04/22 00:40:49;;;;;;;7.57;5.30;;;9.20;99.90;;;;;;5033294;28;20041;-78
2021/04/22 00:43:17;;;;;;;11.55;5.25;;;9.20;99.90;;;;;;5032168;28;20048;-78
2021/04/22 00:45:44;;;;;;;9.38;5.63;;;9.20;99.90;;;;;;5033266;28;20025;-77
2021/04/22 00:48:11;;;;;;;6.50;5.03;;;9.20;99.90;;;;;;5030353;28;20025;-78
2021/04/22 00:50:38;;;;;;;;;;;9.10;99.90;;;;;;5032563;28;20052;-78
2021/04/22 00:53:04;;;;;;;6.25;4.82;;;9.10;99.90;;;;;;5034434;28;20176;-78
2021/04/22 00:55:34;;;;;;;6.72;5.03;;;9.10;99.90;;;;;;5052779;28;20029;-78
2021/04/22 00:58:01;;;;;;;7.10;5.28;;;9.10;99.90;;;;;;5033591;28;20104;-78
2021/04/22 01:00:35;;;;;;;9.23;5.43;;;9.10;99.90;;;;;;5033289;28;20048;-78
2021/04/22 01:03:01;;;;;;;10.25;5.75;;;9.00;99.90;;;;;;5033463;28;20102;-78
2021/04/22 01:05:33;;;;;;;5.82;4.70;;;9.10;99.90;;;;;;5033474;28;20488;-78
2021/04/22 01:07:59;;;;;;;10.48;5.95;;;9.10;99.90;;;;;;5032592;28;20472;-76
2021/04/22 01:10:25;;;;;;;8.38;5.75;;;9.00;99.90;;;;;;5033521;28;20037;-77
2021/04/22 01:12:51;;;;;;;7.95;5.30;;;9.00;99.90;;;;;;5032702;28;20026;-77
2021/04/22 01:15:22;;;;;;;9.68;5.75;;;9.00;99.90;;;;;;5033175;28;20088;-77
2021/04/22 01:17:48;;;;;;;7.18;5.05;;;8.90;99.90;;;;;;5032736;28;20045;-78
2021/04/22 01:20:18;;;;;;;6.88;5.00;;;8.90;99.90;;;;;;5034047;28;20519;-77
2021/04/22 01:22:45;;;;;;;7.07;4.95;;;8.80;99.90;;;;;;5032766;28;20028;-78
2021/04/22 01:25:14;;;;;;;7.65;5.18;;;8.90;99.90;;;;;;5031933;28;20045;-78
2021/04/22 01:27:40;;;;;;;9.00;5.28;;;8.90;99.90;;;;;;5032354;28;20160;-78
2021/04/22 01:30:14;;;;;;;6.20;4.93;;;9.00;99.90;;;;;;5032875;28;20526;-78
2021/04/22 01:32:39;;;;;;;6.05;4.30;;;9.00;99.90;;;;;;5032594;28;20029;-78
2021/04/22 01:35:07;;;;;;;9.52;4.68;;;9.10;99.90;;;;;;5032872;28;20025;-78
2021/04/22 01:37:35;;;;;;;8.02;5.05;;;9.20;99.90;;;;;;5032401;28;20025;-78
2021/04/22 01:40:02;;;;;;;9.52;4.93;;;9.20;99.90;;;;;;5032313;28;20398;-78
2021/04/22 01:42:28;;;;;;;9.30;4.72;;;9.30;99.90;;;;;;5032364;28;20108;-78
2021/04/22 01:44:53;;;;;;;8.73;4.25;;;9.30;99.90;;;;;;5032490;28;20029;-78
2021/04/22 01:47:19;;;;;;;7.35;4.63;;;9.40;99.90;;;;;;5047277;28;20025;-79
2021/04/22 01:49:45;;;;;;;8.52;4.53;;;9.40;99.90;;;;;;5032710;28;20028;-78
2021/04/22 01:52:11;;;;;;;7.63;4.10;;;9.50;99.90;;;;;;5032187;28;20034;-77
2021/04/22 01:54:37;;;;;;;8.68;3.90;;;9.50;99.90;;;;;;5032316;28;20463;-77
2021/04/22 01:57:03;;;;;;;4.95;3.90;;;9.50;99.90;;;;;;5031781;28;20057;-77
2021/04/22 01:59:28;;;;;;;7.22;4.28;;;9.50;99.90;;;;;;5031038;28;20538;-77
2021/04/22 02:01:54;;;;;;;6.75;4.05;;;9.50;99.90;;;;;;5032128;28;20029;-77
2021/04/22 02:04:20;;;;;;;6.55;3.97;;;9.60;99.90;;;;;;5032343;28;20032;-78
2021/04/22 02:06:46;;;;;;;5.50;3.80;;;9.60;99.90;;;;;;5031588;28;20441;-77
2021/04/22 02:09:11;;;;;;;8.50;3.80;;;9.50;99.90;;;;;;5030917;28;20032;-78
2021/04/22 02:11:37;;;;;;;6.15;4.20;;;9.50;99.90;;;;;;5029728;28;20124;-77
2021/04/22 02:14:03;;;;;;;8.77;3.85;;;9.60;99.90;;;;;;5032197;28;20029;-78
2021/04/22 02:16:29;;;;;;;9.00;4.78;;;9.60;99.90;;;;;;5031261;28;20029;-77
2021/04/22 02:18:55;;;;;;;11.35;4.03;;;9.60;99.90;;;;;;5031940;28;20037;-78
2021/04/22 02:21:20;;;;;;;8.32;3.92;;;9.60;99.90;;;;;;5030256;28;20055;-78
2021/04/22 02:23:46;;;;;;;5.47;3.67;;;9.60;99.90;;;;;;5046874;28;20045;-78
2021/04/22 02:26:11;;;;;;;7.13;4.30;;;9.60;99.90;;;;;;5031465;28;20093;-78
2021/04/22 02:28:37;;;;;;;5.07;3.53;;;9.70;99.90;;;;;;5030332;28;20026;-77
2021/04/22 02:31:03;;;;;;;5.07;3.50;;;9.70;99.90;;;;;;5030988;28;20038;-78
2021/04/22 02:33:29;;;;;;;5.65;3.85;;;9.70;99.90;;;;;;5031621;28;20583;-78
2021/04/22 02:35:54;;;;;;;5.25;3.97;;;9.70;99.90;;;;;;5031202;28;20029;-77
2021/04/22 02:38:20;;;;;;;6.07;3.30;;;9.70;99.90;;;;;;5031376;28;20040;-76
2021/04/22 02:40:47;;;;;;;4.93;3.88;;;9.70;99.90;;;;;;5029477;28;20099;-76
2021/04/22 02:43:17;;;;;;;5.90;3.58;;;9.70;99.90;;;;;;5031492;28;20096;-77
2021/04/22 02:45:45;;;;;;;6.15;3.55;;;9.70;99.90;;;;;;5030681;28;20029;-77
2021/04/22 02:48:12;;;;;;;7.70;3.70;;;9.70;99.90;;;;;;5028200;28;20038;-77
2021/04/22 02:50:45;;;;;;;6.22;3.80;;;9.70;99.90;;;;;;5030824;28;20018;-76
2021/04/22 02:53:11;;;;;;;7.20;3.42;;;9.70;99.90;;;;;;5028630;28;20083;-77
2021/04/22 02:55:38;;;;;;;7.97;3.95;;;9.70;99.90;;;;;;5030693;28;20033;-77
2021/04/22 02:58:04;;;;;;;6.78;4.07;;;9.70;99.90;;;;;;5031213;28;20032;-77
2021/04/22 03:00:30;;;;;;;5.85;3.95;;;9.70;99.90;;;;;;5030486;28;20025;-77
2021/04/22 03:02:56;;;;;;;4.22;3.53;;;9.60;99.90;;;;;;5030753;28;20149;-77
2021/04/22 03:05:21;;;;;;;6.75;4.15;;;9.60;99.90;;;;;;5031204;28;20034;-76
2021/04/22 03:07:47;;;;;;;9.70;4.22;;;9.70;99.90;;;;;;5030451;28;20063;-77
2021/04/22 03:10:16;;;;;;;6.18;3.92;;;9.60;99.90;;;;;;5030933;28;20029;-77
2021/04/22 03:12:41;;;;;;;7.30;5.00;;;9.50;99.90;;;;;;5030277;28;20087;-78
2021/04/22 03:15:08;;;;;;;8.45;4.35;;;9.40;99.90;;;;;;5030690;28;20104;-77
2021/04/22 03:17:36;;;;;;;6.45;4.18;;;9.40;99.90;;;;;;5030450;28;20112;-77
2021/04/22 03:20:04;;;;;;;6.40;4.10;;;9.30;99.90;;;;;;5011232;28;20030;-77
2021/04/22 03:22:32;;;;;;;6.05;4.38;;;9.30;99.90;;;;;;5026923;28;20013;-76
2021/04/22 03:24:58;;;;;;;7.05;4.95;;;9.30;99.90;;;;;;5030791;28;20490;-77
2021/04/22 03:27:24;;;;;;;6.70;4.85;;;9.20;99.90;;;;;;5030063;28;20384;-77
2021/04/22 03:29:52;;;;;;;9.07;4.72;;;9.20;99.90;;;;;;5030459;28;20034;-77
2021/04/22 03:32:18;;;;;;;7.13;4.65;;;9.20;99.90;;;;;;5030330;28;20439;-77
2021/04/22 03:34:43;;;;;;;5.07;4.00;;;9.20;99.90;;;;;;5030629;28;20026;-77
2021/04/22 03:37:09;;;;;;;8.75;4.38;;;9.10;99.90;;;;;;5030057;28;20029;-77
2021/04/22 03:39:34;;;;;;;9.20;4.13;;;9.10;99.90;;;;;;5030591;28;20064;-77
2021/04/22 03:42:00;;;;;;;7.05;4.63;;;9.10;99.90;;;;;;5029633;28;20037;-76
2021/04/22 03:44:29;;;;;;;5.10;4.00;;;9.10;99.90;;;;;;5030385;28;20032;-77
2021/04/22 03:46:54;;;;;;;4.90;4.00;;;9.10;99.90;;;;;;5045379;28;20088;-77
2021/04/22 03:49:20;;;;;;;8.77;4.68;;;9.10;99.90;;;;;;5030401;28;20017;-78
2021/04/22 03:51:47;;;;;;;7.88;5.10;;;9.10;99.90;;;;;;5045381;28;20040;-77
2021/04/22 03:54:12;;;;;;;6.80;4.88;;;9.10;99.90;;;;;;5030340;28;20060;-77
2021/04/22 03:56:38;;;;;;;6.53;4.70;;;9.10;99.90;;;;;;5029778;28;20065;-77
2021/04/22 03:59:04;;;;;;;8.93;4.55;;;9.20;99.90;;;;;;5030432;28;20075;-77
2021/04/22 04:01:30;;;;;;;7.70;4.18;;;9.20;99.90;;;;;;5029815;28;20089;-77
2021/04/22 04:03:56;;;;;;;5.38;3.50;;;9.10;99.90;;;;;;5037412;28;20033;-77
2021/04/22 04:06:21;;;;;;;9.60;4.45;;;9.10;99.90;;;;;;5039643;28;20068;-79
2021/04/22 04:08:47;;;;;;;9.43;4.60;;;9.10;99.90;;;;;;5050864;28;20111;-77
2021/04/22 04:11:13;;;;;;;6.00;4.25;;;9.10;99.90;;;;;;5034156;28;20551;-78
2021/04/22 04:13:38;;;;;;;6.95;4.38;;;9.00;99.90;;;;;;5033208;28;20033;-78
2021/04/22 04:16:05;;;;;;;7.15;4.80;;;9.00;99.90;;;;;;5033749;28;20072;-79
2021/04/22 04:18:30;;;;;;;7.95;4.60;;;9.00;99.90;;;;;;5034348;28;20021;-78
2021/04/22 04:20:56;;;;;;;7.45;5.05;;;9.00;99.90;;;;;;5034086;28;20213;-78
2021/04/22 04:23:22;;;;;;;7.57;5.25;;;9.00;99.90;;;;;;5032790;28;20025;-77
2021/04/22 04:25:47;;;;;;;6.40;5.00;;;9.00;99.90;;;;;;5033668;28;20029;-78
2021/04/22 04:28:13;;;;;;;11.73;4.30;;;9.00;99.90;;;;;;5033924;28;20046;-77
2021/04/22 04:30:39;;;;;;;9.20;4.60;;;8.90;99.90;;;;;;5034047;28;20101;-77
2021/04/22 04:33:05;;;;;;;14.52;5.45;;;9.00;99.90;;;;;;5033867;28;20443;-77
2021/04/22 04:35:31;;;;;;;11.32;4.75;;;9.00;99.90;;;;;;5033670;28;20053;-77
2021/04/22 04:37:56;;;;;;;6.03;4.32;;;9.00;99.90;;;;;;5033730;28;20060;-77
2021/04/22 04:40:22;;;;;;;6.60;4.35;;;9.00;99.90;;;;;;5032413;28;20108;-77
2021/04/22 04:42:48;;;;;;;6.55;4.82;;;9.00;99.90;;;;;;5031922;28;20045;-77
2021/04/22 04:45:17;;;;;;;5.15;4.03;;;9.10;99.90;;;;;;5033589;28;20385;-77
2021/04/22 04:47:44;;;;;;;5.20;3.90;;;9.10;99.90;;;;;;5033543;28;20519;-76
2021/04/22 04:50:11;;;;;;;5.65;4.50;;;9.20;99.90;;;;;;5033582;28;20036;-77
2021/04/22 04:52:37;;;;;;;;;;;9.20;99.90;;;;;;5033574;28;20509;-77
2021/04/22 04:55:04;;;;;;;6.07;4.35;;;9.30;99.90;;;;;;5033447;28;20004;-78
2021/04/22 04:57:30;;;;;;;5.68;4.15;;;9.30;99.90;;;;;;5033123;28;20021;-80
2021/04/22 04:59:56;;;;;;;8.27;4.30;;;9.30;99.90;;;;;;5033209;28;20076;-79
2021/04/22 05:02:22;;;;;;;6.03;4.43;;;9.40;99.90;;;;;;5033146;28;20018;-79
2021/04/22 05:04:48;;;;;;;5.57;4.03;;;9.40;99.90;;;;;;5033703;28;20029;-78
2021/04/22 05:07:14;;;;;;;9.13;4.85;;;9.40;99.90;;;;;;5032884;28;20551;-78
2021/04/22 05:09:40;;;;;;;6.28;3.95;;;9.40;99.90;;;;;;5033448;28;20384;-77
2021/04/22 05:12:06;;;;;;;9.85;4.57;;;9.50;99.90;;;;;;5032815;28;20037;-78
2021/04/22 05:14:32;;;;;;;7.72;3.90;;;9.60;99.90;;;;;;5031870;28;20022;-79
2021/04/22 05:16:58;;;;;;;8.00;4.75;;;9.70;99.90;;;;;;5030671;28;20064;-77
2021/04/22 05:19:24;;;;;;;7.82;4.22;;;9.80;99.90;;;;;;5033593;28;20061;-78
2021/04/22 05:21:49;;;;;;;9.05;4.50;;;9.90;99.90;;;;;;5032651;28;20037;-77
2021/04/22 05:24:15;;;;;;;11.02;5.25;;;10.00;99.90;;;;;;5033060;28;20048;-78
2021/04/22 05:26:41;;;;;;;8.88;4.90;;;10.10;99.90;;;;;;5032435;28;20400;-77
2021/04/22 05:29:07;;;;;;;5.65;4.40;;;10.20;99.90;;;;;;5032934;28;20028;-78
2021/04/22 05:31:33;;;;;;;7.63;4.15;;;10.40;99.90;;;;;;5032329;28;20045;-79
2021/04/22 05:33:58;;;;;;;9.50;4.05;;;10.50;99.90;;;;;;5032868;28;20018;-78
2021/04/22 05:36:24;;;;;;;11.13;5.22;;;10.80;99.90;;;;;;5032596;28;20075;-78
2021/04/22 05:38:50;;;;;;;16.90;3.85;;;11.10;99.90;;;;;;5038306;28;20396;-78
2021/04/22 05:41:16;;;;;;;5.53;3.63;;;11.50;99.90;;;;;;5045513;28;20038;-78
2021/04/22 05:43:42;;;;;;;5.97;3.80;;;11.80;99.90;;;;;;5032873;28;20502;-78
2021/04/22 05:46:07;;;;;;;6.55;3.72;;;12.00;99.90;;;;;;5032190;28;20100;-78
2021/04/22 05:48:33;;;;;;;5.68;3.53;;;12.30;99.90;;;;;;5032628;28;20112;-78
2021/04/22 05:50:58;;;;;;;5.80;3.92;;;12.50;99.90;;;;;;5032282;28;20105;-78
2021/04/22 05:53:27;;;;;;;6.10;3.72;;;12.70;99.90;;;;;;5032262;28;20416;-77
2021/04/22 05:55:53;;;;;;;6.97;3.40;;;12.60;99.90;;;;;;5031011;28;20096;-78
2021/04/22 05:58:18;;;;;;;4.80;3.75;;;12.50;99.90;;;;;;5032124;28;20067;-78
2021/04/22 06:00:44;;;;;;;9.10;3.53;;;12.40;99.90;;;;;;5031734;28;20121;-77
2021/04/22 06:03:10;;;;;;;4.95;3.72;;;12.20;99.90;;;;;;5032345;28;20025;-80
2021/04/22 06:05:36;;;;;;;13.68;4.07;;;12.10;99.90;;;;;;5032251;28;20033;-79
2021/04/22 06:08:03;;;;;;;7.47;3.88;;;12.00;99.90;;;;;;5032259;28;20108;-77
2021/04/22 06:10:29;;;;;;;6.30;3.65;;;12.10;99.90;;;;;;5033014;28;20041;-79
2021/04/22 06:12:54;;;;;;;4.43;3.55;;;12.10;99.90;;;;;;5032584;28;20103;-82
2021/04/22 06:15:25;;;;;;;6.40;3.72;;;12.10;99.90;;;;;;5033051;28;20018;-84
2021/04/22 06:17:50;;;;;;;5.20;3.88;;;12.20;99.90;;;;;;5033663;28;20480;-84
2021/04/22 06:20:22;;;;;;;5.40;3.55;;;12.30;99.90;;;;;;5032952;28;20075;-81
2021/04/22 06:22:49;;;;;;;7.25;3.72;;;12.30;99.90;;;;;;5032245;28;20025;-81
2021/04/22 06:25:16;;;;;;;8.17;4.00;;;12.40;99.90;;;;;;5030603;28;20359;-80
2021/04/22 06:27:41;;;;;;;8.55;3.42;;;12.50;99.90;;;;;;5030308;28;20017;-80
2021/04/22 06:30:09;;;;;;;5.07;3.47;;;12.60;99.90;;;;;;5029836;28;20044;-83
2021/04/22 06:32:35;;;;;;;10.48;3.50;;;12.70;99.90;;;;;;5031359;28;20119;-82
2021/04/22 06:35:01;;;;;;;6.38;3.13;;;12.90;99.90;;;;;;5046025;28;20580;-81
2021/04/22 06:37:27;;;;;;;6.80;3.33;;;12.90;99.90;;;;;;5031156;28;20030;-81
2021/04/22 06:39:52;;;;;;;5.68;3.95;;;13.00;99.90;;;;;;5024021;28;20450;-81
2021/04/22 06:42:18;;;;;;;7.07;3.65;;;13.00;99.90;;;;;;5027840;28;20076;-80
2021/04/22 06:44:44;;;;;;;6.72;3.45;;;13.10;99.90;;;;;;5030984;28;20076;-80
2021/04/22 06:47:12;;;;;;;9.45;3.85;;;13.20;99.90;;;;;;5031478;28;20565;-81
2021/04/22 06:49:38;;;;;;;5.68;3.47;;;13.30;99.90;;;;;;5029971;28;20027;-82
2021/04/22 06:52:04;;;;;;;5.57;2.70;;;13.40;99.90;;;;;;5032421;28;20041;-80
2021/04/22 06:54:30;;;;;;;6.60;2.90;;;13.60;99.90;;;;;;5032004;28;20203;-81
2021/04/22 06:56:56;;;;;;;9.40;3.20;;;13.70;99.90;;;;;;5030599;28;20099;-81
2021/04/22 06:59:22;;;;;;;9.32;3.28;;;13.60;99.90;;;;;;5031578;28;20060;-80
2021/04/22 07:01:47;;;;;;;6.95;2.63;;;13.70;99.90;;;;;;5030988;28;20460;-81
2021/04/22 07:04:13;;;;;;;6.47;2.92;;;13.70;99.90;;;;;;5031722;28;20071;-82
2021/04/22 07:06:39;;;;;;;7.95;2.90;;;13.80;99.90;;;;;;5030562;28;20535;-83
2021/04/22 07:09:05;;;;;;;6.20;2.90;;;13.90;99.90;;;;;;5031559;28;20031;-79
2021/04/22 07:11:30;;;;;;;5.55;3.00;;;13.90;99.90;;;;;;5030089;28;20037;-80
2021/04/22 07:13:56;;;;;;;9.02;3.50;;;14.00;99.90;;;;;;5031097;28;20468;-80
2021/04/22 07:16:21;;;;;;;6.00;2.83;;;14.00;99.90;;;;;;5031128;28;20377;-79
2021/04/22 07:18:47;;;;;;;10.20;3.75;;;14.00;99.90;;;;;;5031187;28;20021;-79
2021/04/22 07:21:13;;;;;;;6.40;3.05;;;14.00;99.90;;;;;;5033468;28;20048;-81
2021/04/22 07:23:39;;;;;;;7.20;2.55;;;14.00;99.90;;;;;;5032254;28;20495;-80
2021/04/22 07:26:05;;;;;;;4.93;3.17;;;14.30;99.90;;;;;;5032529;28;20035;-80
2021/04/22 07:28:32;;;;;;;5.65;2.65;;;14.30;99.90;;;;;;5031761;28;20487;-78
2021/04/22 07:30:58;;;;;;;9.30;3.13;;;14.30;99.90;;;;;;5030695;28;20026;-79
2021/04/22 07:33:24;;;;;;;5.70;2.40;;;14.30;99.90;;;;;;5031663;28;20036;-78
2021/04/22 07:35:49;;;;;;;5.30;2.33;;;14.30;99.90;;;;;;5030202;28;20503;-79
2021/04/22 07:38:16;;;;;;;8.80;2.85;;;14.20;99.90;;;;;;5031302;28;20116;-79
2021/04/22 07:40:43;;;;;;;8.03;3.23;;;14.30;99.90;;;;;;5031156;28;20046;-80
2021/04/22 07:43:11;;;;;;;6.80;3.60;;;14.40;99.90;;;;;;5031978;28;20284;-82
2021/04/22 07:45:43;;;;;;;8.73;2.97;;;14.40;99.90;;;;;;5031617;28;20033;-79
2021/04/22 07:48:11;;;;;;;18.60;6.60;;;14.40;99.90;;;;;;5033484;28;20116;-80
2021/04/22 07:50:37;;;;;;;17.63;5.10;;;14.30;99.90;;;;;;5032487;28;20033;-80
2021/04/22 07:53:07;;;;;;;8.95;3.25;;;14.30;99.90;;;;;;5031303;28;20044;-79
2021/04/22 07:55:37;;;;;;;7.97;2.60;;;14.40;99.90;;;;;;5031682;28;20026;-79
2021/04/22 07:58:03;;;;;;;11.45;4.25;;;14.40;99.90;;;;;;5031352;28;20022;-79
2021/04/22 08:00:31;;;;;;;5.05;2.47;;;14.50;99.90;;;;;;5030607;28;20029;-78
2021/04/22 08:02:57;;;;;;;6.72;3.13;;;14.70;99.90;;;;;;5043106;28;20033;-79
2021/04/22 08:05:27;;;;;;;11.80;3.05;;;14.90;99.90;;;;;;5051393;28;20025;-78
2021/04/22 08:07:53;;;;;;;8.15;3.50;;;14.90;99.90;;;;;;5037184;28;20393;-79
2021/04/22 08:10:22;;;;;;;10.23;3.10;;;14.90;99.90;;;;;;5032567;28;20029;-79
2021/04/22 08:12:48;;;;;;;8.40;3.50;;;14.90;99.90;;;;;;5046838;28;20040;-78
2021/04/22 08:15:16;;;;;;;17.20;2.85;;;14.90;99.90;;;;;;5052620;28;20081;-81
2021/04/22 08:17:42;;;;;;;9.60;2.42;;;15.00;99.90;;;;;;5041490;28;20041;-80
2021/04/22 08:20:20;;;;;;;7.03;2.67;;;15.20;99.90;;;;;;5031131;28;20025;-79
2021/04/22 08:22:47;;;;;;;5.45;2.88;;;15.50;99.90;;;;;;5030530;28;20013;-79
2021/04/22 08:25:20;;;;;;;7.47;2.87;;;15.70;99.90;;;;;;5030393;28;20074;-77
2021/04/22 08:27:51;;;;;;;5.28;2.22;;;15.80;98.70;;;;;;5029402;28;20022;-76
2021/04/22 08:30:23;;;;;;;5.90;2.47;;;15.90;98.60;;;;;;5030212;28;20075;-79
2021/04/22 08:32:52;;;;;;;5.22;2.20;;;16.00;99.90;;;;;;5029625;28;20038;-77
2021/04/22 08:35:18;;;;;;;4.78;3.00;;;16.20;99.00;;;;;;5030222;28;20287;-79
2021/04/22 08:37:44;;;;;;;12.50;4.97;;;16.20;95.90;;;;;;5029322;28;20063;-77
2021/04/22 08:40:15;;;;;;;7.82;3.00;;;16.10;97.30;;;;;;5029094;28;20236;-77
2021/04/22 08:42:42;;;;;;;19.25;3.17;;;16.00;98.00;;;;;;5028858;28;20029;-77
2021/04/22 08:45:10;;;;;;;9.73;3.20;;;16.10;99.30;;;;;;5029939;28;20929;-78
2021/04/22 08:47:37;;;;;;;9.77;2.67;;;16.30;99.90;;;;;;5029129;28;20029;-77
2021/04/22 08:50:03;;;;;;;;;;;16.10;96.90;;;;;;5010788;28;20037;-77
2021/04/22 08:52:29;;;;;;;11.57;3.53;;;16.10;98.60;;;;;;5029786;28;20089;-78
2021/04/22 08:54:55;;;;;;;10.75;3.60;;;16.20;99.70;;;;;;5033693;28;20064;-77
2021/04/22 08:57:21;;;;;;;8.88;3.38;;;16.10;98.50;;;;;;5032820;28;20097;-76
2021/04/22 08:59:52;;;;;;;11.10;3.85;;;15.70;99.60;;;;;;5033170;28;20017;-79
2021/04/22 09:02:18;;;;;;;8.63;3.30;;;15.40;99.20;;;;;;5032963;28;20053;-78
2021/04/22 09:04:45;;;;;;;9.18;2.88;;;15.20;99.10;;;;;;5033645;28;20037;-79
2021/04/22 09:07:10;;;;;;;6.18;3.55;;;15.10;99.20;;;;;;5031432;28;20021;-78
2021/04/22 09:09:36;;;;;;;9.82;3.65;;;15.10;99.20;;;;;;5033171;28;20495;-77
2021/04/22 09:12:12;;;;;;;5.88;3.15;;;15.20;99.40;;;;;;5032596;28;20045;-77
2021/04/22 09:14:38;;;;;;;5.07;2.90;;;15.20;99.90;;;;;;5031920;28;20021;-77
2021/04/22 09:17:15;;;;;;;8.43;3.15;;;15.10;99.80;;;;;;5048114;28;20037;-77
2021/04/22 09:19:43;;;;;;;9.02;3.20;;;15.10;99.90;;;;;;5033352;28;20022;-78
2021/04/22 09:22:08;;;;;;;5.05;2.75;;;15.20;99.90;;;;;;5032530;28;20060;-79
2021/04/22 09:24:34;;;;;;;10.77;3.10;;;15.30;99.30;;;;;;5033115;28;20480;-79
2021/04/22 09:27:04;;;;;;;8.35;2.85;;;15.20;99.50;;;;;;5032481;28;20091;-79
2021/04/22 09:29:46;;;;;;;6.63;3.50;;;15.30;99.00;;;;;;5032976;28;20473;-78
2021/04/22 09:32:22;;;;;;;8.35;3.00;;;15.40;98.80;;;;;;5031938;28;20492;-78
2021/04/22 09:34:50;;;;;;;91.10;40.53;;;15.60;99.20;;;;;;5030817;28;20021;-79
2021/04/22 09:37:20;;;;;;;8.98;2.97;;;15.90;99.90;;;;;;5032881;28;20109;-81
2021/04/22 09:39:47;;;;;;;9.13;2.85;;;16.00;97.20;;;;;;5035051;28;20490;-79
2021/04/22 09:42:20;;;;;;;6.85;2.60;;;16.00;98.20;;;;;;5032267;28;20057;-81
2021/04/22 09:44:49;;;;;;;7.28;2.78;;;16.30;97.30;;;;;;5029797;28;20100;-79
2021/04/22 09:47:20;;;;;;;11.35;3.08;;;16.30;95.40;;;;;;5028152;28;20025;-79
2021/04/22 09:50:00;;;;;;;4.85;2.33;;;16.60;95.50;;;;;;5029861;28;20104;-79
2021/04/22 09:52:32;;;;;;;11.18;3.38;;;16.90;95.20;;;;;;5030211;28;20611;-81
2021/04/22 09:54:59;;;;;;;12.10;3.45;;;17.20;94.40;;;;;;5031766;28;20017;-80
2021/04/22 09:57:31;;;;;;;5.15;2.20;;;17.30;94.40;;;;;;5036135;28;20045;-81
2021/04/22 09:59:59;;;;;;;6.75;2.03;;;16.80;92.50;;;;;;5030656;28;20205;-81
2021/04/22 10:02:26;;;;;;;14.48;2.45;;;16.70;92.10;;;;;;5030242;28;20061;-80
2021/04/22 10:04:54;;;;;;;5.22;2.20;;;16.50;93.70;;;;;;5030430;28;20112;-81
2021/04/22 10:07:26;;;;;;;4.47;1.70;;;16.60;94.70;;;;;;5030351;28;20136;-79
2021/04/22 10:09:55;;;;;;;3.80;2.00;;;16.60;93.20;;;;;;5030645;28;20466;-79
2021/04/22 10:12:30;;;;;;;9.65;2.13;;;16.90;92.60;;;;;;5029304;28;20444;-80
2021/04/22 10:15:07;;;;;;;6.35;2.25;;;17.10;93.00;;;;;;5017921;28;20037;-77
2021/04/22 10:17:32;;;;;;;9.32;3.00;;;17.00;94.00;;;;;;5025832;28;20480;-78
2021/04/22 10:20:04;;;;;;;7.18;2.65;;;16.60;93.50;;;;;;5028175;28;20036;-77
2021/04/22 10:22:33;;;;;;;6.38;3.20;;;16.30;96.20;;;;;;5027626;28;20052;-78
2021/04/22 10:25:01;;;;;;;9.75;2.75;;;16.10;98.10;;;;;;5028854;28;20083;-78
2021/04/22 10:27:28;;;;;;;7.32;2.58;;;15.80;99.50;;;;;;5027500;28;20163;-78
2021/04/22 10:29:55;;;;;;;3.70;2.17;;;15.80;99.50;;;;;;5028806;28;20553;-78
2021/04/22 10:32:22;;;;;;;8.93;3.00;;;15.90;98.50;;;;;;5028351;28;20050;-77
2021/04/22 10:34:50;;;;;;;;;;;16.00;98.70;;;;;;5029438;28;20022;-77
2021/04/22 10:37:17;;;;;;;5.28;3.05;;;15.90;99.00;;;;;;5028282;28;19909;-77
2021/04/22 10:39:44;;;;;;;8.40;3.63;;;16.00;99.90;;;;;;5028097;28;20029;-78
2021/04/22 10:42:10;;;;;;;6.03;2.72;;;16.00;99.40;;;;;;5028233;28;20037;-78
2021/04/22 10:44:38;;;;;;;6.57;3.03;;;16.10;99.90;;;;;;5028855;28;20478;-78
2021/04/22 10:47:04;;;;;;;5.30;2.95;;;16.30;99.50;;;;;;5026402;28;20052;-78
2021/04/22 10:49:30;;;;;;;8.68;3.03;;;16.20;99.90;;;;;;5026664;28;20022;-79
2021/04/22 10:51:56;;;;;;;6.95;3.00;;;16.10;99.90;;;;;;5026953;28;20492;-78
2021/04/22 10:54:22;;;;;;;8.88;3.33;;;16.00;99.90;;;;;;5028136;28;20155;-77
2021/04/22 10:56:49;;;;;;;6.68;3.45;;;16.10;99.90;;;;;;5043143;28;20037;-79
2021/04/22 10:59:24;;;;;;;12.87;3.63;;;16.10;99.90;;;;;;5028354;28;20512;-78
2021/04/22 11:01:50;;;;;;;13.07;3.70;;;15.80;99.90;;;;;;5027144;28;20775;-78
2021/04/22 11:04:15;;;;;;;13.55;4.55;;;15.80;99.90;;;;;;5027921;28;20028;-76
2021/04/22 11:06:43;;;;;;;8.00;4.10;;;15.80;99.90;;;;;;5028059;28;20036;-76
2021/04/22 11:09:16;;;;;;;9.45;3.70;;;15.70;99.90;;;;;;5028843;28;20143;-76
2021/04/22 11:11:56;;;;;;;8.27;3.97;;;15.80;99.90;;;;;;5042649;28;20041;-77
2021/04/22 11:14:34;;;;;;;15.70;4.70;;;15.60;99.90;;;;;;5027416;28;20057;-77
2021/04/22 11:17:00;;;;;;;;;;;15.80;99.90;;;;;;5042360;28;20276;-77
2021/04/22 11:19:33;;;;;;;10.40;3.80;;;15.80;99.90;;;;;;5029028;28;19916;-77
2021/04/22 11:22:05;;;;;;;11.43;3.80;;;15.70;99.90;;;;;;5042230;28;20287;-78
2021/04/22 11:24:34;;;;;;;15.48;4.55;;;15.70;99.90;;;;;;5028015;28;20485;-77
2021/04/22 11:27:20;;;;;;;15.13;5.82;;;15.90;99.90;;;;;;5027414;28;20037;-79
2021/04/22 11:29:57;;;;;;;21.50;3.90;;;15.90;99.90;;;;;;5006445;28;20089;-78
2021/04/22 11:32:42;;;;;;;14.18;3.95;;;15.80;99.90;;;;;;5027454;28;20355;-77
2021/04/22 11:35:13;;;;;;;13.30;4.40;;;15.80;99.90;;;;;;5007889;28;20018;-78
2021/04/22 11:37:41;;;;;;;8.13;4.07;;;15.70;99.90;;;;;;5019822;28;20037;-77
2021/04/22 11:40:10;;;;;;;13.23;4.40;;;15.70;99.90;;;;;;5017749;28;20013;-78
2021/04/22 11:42:37;;;;;;;20.42;4.25;;;15.80;99.90;;;;;;5020447;28;20695;-78
2021/04/22 11:45:07;;;;;;;16.55;4.40;;;15.80;99.90;;;;;;5022480;28;20504;-78
2021/04/22 11:47:33;;;;;;;7.20;3.75;;;15.90;99.90;;;;;;5024400;28;20099;-77
2021/04/22 11:50:20;;;;;;;17.83;4.97;;;15.50;99.90;;;;;;5021176;28;20060;-79
2021/04/22 11:52:54;;;;;;;10.52;3.95;;;15.30;99.90;;;;;;5048829;28;20048;-78
2021/04/22 11:55:24;;;;;;;11.77;3.97;;;15.30;99.90;;;;;;5037016;28;20030;-79
2021/04/22 11:58:11;;;;;;;9.50;3.80;;;15.60;99.90;;;;;;5030368;28;20033;-80
2021/04/22 12:00:59;;;;;;;13.82;5.28;;;15.90;99.90;;;;;;5027288;28;20032;-79
2021/04/22 12:03:27;;;;;;;8.90;3.58;;;15.70;99.90;;;;;;5042456;28;20087;-79
2021/04/22 12:05:54;;;;;;;7.78;3.40;;;15.70;99.90;;;;;;5027593;28;20041;-78
2021/04/22 12:08:31;;;;;;;8.02;3.70;;;15.70;99.90;;;;;;5028020;28;20081;-79
2021/04/22 12:10:57;;;;;;;9.50;3.67;;;16.90;99.90;;;;;;5026669;28;20034;-79
2021/04/22 12:13:23;;;;;;;8.20;2.95;;;18.60;97.90;;;;;;5027171;28;20595;-83
2021/04/22 12:15:58;;;;;;;8.37;3.73;;;18.50;97.40;;;;;;5028572;28;20052;-81
2021/04/22 12:18:31;;;;;;;8.73;3.28;;;18.70;96.80;;;;;;5028904;28;20025;-80
2021/04/22 12:21:17;;;;;;;22.67;3.92;;;19.10;95.80;;;;;;5047559;28;20009;-83
2021/04/22 12:23:45;;;;;;;6.20;3.75;;;20.60;93.70;;;;;;5044003;28;20112;-82
2021/04/22 12:26:23;;;;;;;9.55;3.95;;;21.00;91.60;;;;;;5033814;28;20059;-82
2021/04/22 12:29:01;;;;;;;18.33;3.03;;;20.50;92.80;;;;;;5041304;28;20014;-86
2021/04/22 12:31:36;;;;;;;14.57;4.30;;;21.40;90.20;;;;;;5052311;28;20084;-83
2021/04/22 12:34:11;;;;;;;9.00;3.20;;;22.50;88.60;;;;;;5048480;28;20041;-81
2021/04/22 12:36:41;;;;;;;10.88;4.00;;;22.40;83.40;;;;;;5033735;28;20378;-82
2021/04/22 12:39:07;;;;;;;16.08;5.30;;;21.70;87.70;;;;;;5031534;28;20044;-83
2021/04/22 12:41:33;;;;;;;6.47;3.03;;;21.40;89.70;;;;;;5032837;28;20512;-84
2021/04/22 12:43:59;;;;;;;14.67;3.70;;;21.70;88.30;;;;;;5011390;28;20065;-81
2021/04/22 12:46:27;;;;;;;10.57;3.50;;;20.70;91.10;;;;;;5031459;28;20459;-84
2021/04/22 12:49:00;;;;;;;15.68;2.97;;;20.80;91.60;;;;;;5033394;28;20021;-80
2021/04/22 12:51:37;;;;;;;9.85;3.03;;;21.80;89.80;;;;;;5030662;28;20515;-79
2021/04/22 12:54:04;;;;;;;14.88;3.55;;;22.40;84.90;;;;;;5028734;28;20030;-80